sensor_id;sensor_type;location;lat;lon;timestamp;temperature;humidity
6752;DHT22;3413;47.680;9.166;2023-06-22T00:00:02;26.30;81.10
6752;DHT22;3413;47.680;9.166;2023-06-22T00:05:12;26.20;81.00
6752;DHT22;3413;47.680;9.166;2023-06-22T00:10:14;26.10;81.20
6752;DHT22;3413;47.680;9.166;2023-06-22T00:15:16;26.10;81.30
6752;DHT22;3413;47.680;9.166;2023-06-22T00:20:18;26.00;81.40
6752;DHT22;3413;47.680;9.166;2023-06-22T00:25:20;25.90;81.50
6752;DHT22;3413;47.680;9.166;2023-06-22T00:30:23;25.90;81.50
6752;DHT22;3413;47.680;9.166;2023-06-22T00:35:25;25.90;81.50
6752;DHT22;3413;47.680;9.166;2023-06-22T00:40:33;26.00;81.40
6752;DHT22;3413;47.680;9.166;2023-06-22T00:45:35;26.00;81.40
6752;DHT22;3413;47.680;9.166;2023-06-22T00:50:37;26.00;81.50
6752;DHT22;3413;47.680;9.166;2023-06-22T00:55:43;25.90;81.50
6752;DHT22;3413;47.680;9.166;2023-06-22T01:00:47;26.00;81.60
6752;DHT22;3413;47.680;9.166;2023-06-22T01:05:50;26.00;81.50
6752;DHT22;3413;47.680;9.166;2023-06-22T01:11:20;25.90;81.40
6752;DHT22;3413;47.680;9.166;2023-06-22T01:16:27;25.90;81.60
6752;DHT22;3413;47.680;9.166;2023-06-22T01:21:31;25.80;81.50
6752;DHT22;3413;47.680;9.166;2023-06-22T01:31:36;25.70;81.60
6752;DHT22;3413;47.680;9.166;2023-06-22T01:36:39;25.60;81.80
6752;DHT22;3413;47.680;9.166;2023-06-22T01:41:42;25.50;81.90
6752;DHT22;3413;47.680;9.166;2023-06-22T01:46:45;25.40;81.90
6752;DHT22;3413;47.680;9.166;2023-06-22T01:51:48;25.30;82.00
6752;DHT22;3413;47.680;9.166;2023-06-22T01:56:50;25.30;82.00
6752;DHT22;3413;47.680;9.166;2023-06-22T02:02:05;25.30;82.10
6752;DHT22;3413;47.680;9.166;2023-06-22T02:07:13;25.30;82.20
6752;DHT22;3413;47.680;9.166;2023-06-22T02:12:18;25.20;82.10
6752;DHT22;3413;47.680;9.166;2023-06-22T02:17:22;25.10;82.10
6752;DHT22;3413;47.680;9.166;2023-06-22T02:22:25;25.10;82.20
6752;DHT22;3413;47.680;9.166;2023-06-22T02:27:27;25.00;82.30
6752;DHT22;3413;47.680;9.166;2023-06-22T02:32:29;25.00;82.30
6752;DHT22;3413;47.680;9.166;2023-06-22T02:37:31;25.10;82.40
6752;DHT22;3413;47.680;9.166;2023-06-22T02:42:33;25.00;82.40
6752;DHT22;3413;47.680;9.166;2023-06-22T02:47:35;25.00;82.50
6752;DHT22;3413;47.680;9.166;2023-06-22T02:52:37;25.00;82.50
6752;DHT22;3413;47.680;9.166;2023-06-22T02:57:41;25.00;82.50
6752;DHT22;3413;47.680;9.166;2023-06-22T03:02:46;24.90;82.60
6752;DHT22;3413;47.680;9.166;2023-06-22T03:07:49;24.80;82.60
6752;DHT22;3413;47.680;9.166;2023-06-22T03:12:52;24.80;82.60
6752;DHT22;3413;47.680;9.166;2023-06-22T03:17:54;24.80;82.60
6752;DHT22;3413;47.680;9.166;2023-06-22T03:22:57;24.80;82.70
6752;DHT22;3413;47.680;9.166;2023-06-22T03:27:59;24.70;82.60
6752;DHT22;3413;47.680;9.166;2023-06-22T03:33:02;24.70;82.80
6752;DHT22;3413;47.680;9.166;2023-06-22T03:38:04;24.60;82.80
6752;DHT22;3413;47.680;9.166;2023-06-22T03:43:06;24.50;82.80
6752;DHT22;3413;47.680;9.166;2023-06-22T03:48:10;24.50;82.90
6752;DHT22;3413;47.680;9.166;2023-06-22T03:53:12;24.40;83.00
6752;DHT22;3413;47.680;9.166;2023-06-22T03:58:14;24.30;83.00
6752;DHT22;3413;47.680;9.166;2023-06-22T04:03:17;24.20;83.10
6752;DHT22;3413;47.680;9.166;2023-06-22T04:08:22;24.20;83.20
6752;DHT22;3413;47.680;9.166;2023-06-22T04:13:24;24.10;83.30
6752;DHT22;3413;47.680;9.166;2023-06-22T04:18:26;24.10;83.50
6752;DHT22;3413;47.680;9.166;2023-06-22T04:23:28;24.10;83.50
6752;DHT22;3413;47.680;9.166;2023-06-22T04:28:30;24.00;83.60
6752;DHT22;3413;47.680;9.166;2023-06-22T04:33:36;24.00;83.60
6752;DHT22;3413;47.680;9.166;2023-06-22T04:38:40;24.00;83.80
6752;DHT22;3413;47.680;9.166;2023-06-22T04:43:42;23.80;83.90
6752;DHT22;3413;47.680;9.166;2023-06-22T04:48:43;23.90;84.20
6752;DHT22;3413;47.680;9.166;2023-06-22T04:53:45;23.90;84.30
6752;DHT22;3413;47.680;9.166;2023-06-22T04:58:47;24.00;84.40
6752;DHT22;3413;47.680;9.166;2023-06-22T05:03:49;24.00;84.70
6752;DHT22;3413;47.680;9.166;2023-06-22T05:08:56;24.10;84.80
6752;DHT22;3413;47.680;9.166;2023-06-22T05:14:01;24.20;84.90
6752;DHT22;3413;47.680;9.166;2023-06-22T05:19:03;24.20;84.90
6752;DHT22;3413;47.680;9.166;2023-06-22T05:24:05;24.40;85.10
6752;DHT22;3413;47.680;9.166;2023-06-22T05:29:07;24.60;85.20
6752;DHT22;3413;47.680;9.166;2023-06-22T05:34:09;24.70;85.30
6752;DHT22;3413;47.680;9.166;2023-06-22T05:39:15;24.80;85.50
6752;DHT22;3413;47.680;9.166;2023-06-22T05:44:17;24.90;85.60
6752;DHT22;3413;47.680;9.166;2023-06-22T05:49:19;25.00;85.70
6752;DHT22;3413;47.680;9.166;2023-06-22T05:54:23;25.00;85.70
6752;DHT22;3413;47.680;9.166;2023-06-22T05:59:25;25.10;85.90
6752;DHT22;3413;47.680;9.166;2023-06-22T06:04:27;25.20;85.90
6752;DHT22;3413;47.680;9.166;2023-06-22T06:09:29;25.30;85.90
6752;DHT22;3413;47.680;9.166;2023-06-22T06:14:31;25.40;86.00
6752;DHT22;3413;47.680;9.166;2023-06-22T06:19:33;25.50;86.10
6752;DHT22;3413;47.680;9.166;2023-06-22T06:24:35;25.60;86.10
6752;DHT22;3413;47.680;9.166;2023-06-22T06:29:37;25.70;86.20
6752;DHT22;3413;47.680;9.166;2023-06-22T06:34:39;25.80;86.10
6752;DHT22;3413;47.680;9.166;2023-06-22T06:39:42;25.90;86.20
6752;DHT22;3413;47.680;9.166;2023-06-22T06:44:45;26.00;86.90
6752;DHT22;3413;47.680;9.166;2023-06-22T06:49:47;26.10;86.30
6752;DHT22;3413;47.680;9.166;2023-06-22T06:54:49;26.20;86.30
6752;DHT22;3413;47.680;9.166;2023-06-22T06:59:53;26.30;86.40
6752;DHT22;3413;47.680;9.166;2023-06-22T07:04:55;26.50;86.50
6752;DHT22;3413;47.680;9.166;2023-06-22T07:09:57;26.60;86.30
6752;DHT22;3413;47.680;9.166;2023-06-22T07:15:04;26.70;86.40
6752;DHT22;3413;47.680;9.166;2023-06-22T07:20:07;26.80;86.50
6752;DHT22;3413;47.680;9.166;2023-06-22T07:25:14;26.90;86.60
6752;DHT22;3413;47.680;9.166;2023-06-22T07:30:17;27.00;86.50
6752;DHT22;3413;47.680;9.166;2023-06-22T07:35:19;27.10;86.60
6752;DHT22;3413;47.680;9.166;2023-06-22T07:40:21;27.20;86.60
6752;DHT22;3413;47.680;9.166;2023-06-22T07:45:23;27.30;86.60
6752;DHT22;3413;47.680;9.166;2023-06-22T07:50:25;27.50;86.60
6752;DHT22;3413;47.680;9.166;2023-06-22T07:55:27;27.70;86.70
6752;DHT22;3413;47.680;9.166;2023-06-22T08:00:30;27.90;86.80
6752;DHT22;3413;47.680;9.166;2023-06-22T08:05:32;28.00;86.80
6752;DHT22;3413;47.680;9.166;2023-06-22T08:10:35;28.10;86.70
6752;DHT22;3413;47.680;9.166;2023-06-22T08:15:38;28.20;86.60
6752;DHT22;3413;47.680;9.166;2023-06-22T08:20:40;27.90;86.40
6752;DHT22;3413;47.680;9.166;2023-06-22T08:25:42;27.80;86.40
6752;DHT22;3413;47.680;9.166;2023-06-22T08:30:44;27.80;86.40
6752;DHT22;3413;47.680;9.166;2023-06-22T08:35:46;27.80;86.50
6752;DHT22;3413;47.680;9.166;2023-06-22T08:40:48;27.70;86.60
6752;DHT22;3413;47.680;9.166;2023-06-22T08:45:50;27.70;86.70
6752;DHT22;3413;47.680;9.166;2023-06-22T08:50:52;27.70;86.90
6752;DHT22;3413;47.680;9.166;2023-06-22T08:55:54;27.90;86.90
6752;DHT22;3413;47.680;9.166;2023-06-22T09:00:56;28.00;86.70
6752;DHT22;3413;47.680;9.166;2023-06-22T09:05:58;28.20;87.10
6752;DHT22;3413;47.680;9.166;2023-06-22T09:11:01;28.30;87.20
6752;DHT22;3413;47.680;9.166;2023-06-22T09:16:03;28.50;87.20
6752;DHT22;3413;47.680;9.166;2023-06-22T09:21:05;28.80;87.50
6752;DHT22;3413;47.680;9.166;2023-06-22T09:26:07;29.10;87.60
6752;DHT22;3413;47.680;9.166;2023-06-22T09:31:09;29.40;87.70
6752;DHT22;3413;47.680;9.166;2023-06-22T09:36:11;29.60;87.80
6752;DHT22;3413;47.680;9.166;2023-06-22T09:41:14;29.90;88.00
6752;DHT22;3413;47.680;9.166;2023-06-22T09:46:16;30.20;88.00
6752;DHT22;3413;47.680;9.166;2023-06-22T09:51:18;30.40;88.00
6752;DHT22;3413;47.680;9.166;2023-06-22T09:56:22;30.50;88.00
6752;DHT22;3413;47.680;9.166;2023-06-22T10:01:24;30.70;88.00
6752;DHT22;3413;47.680;9.166;2023-06-22T10:06:27;30.90;87.90
6752;DHT22;3413;47.680;9.166;2023-06-22T10:11:28;31.00;87.60
6752;DHT22;3413;47.680;9.166;2023-06-22T10:16:33;31.20;87.70
6752;DHT22;3413;47.680;9.166;2023-06-22T10:21:37;31.50;87.60
6752;DHT22;3413;47.680;9.166;2023-06-22T10:26:39;31.70;87.70
6752;DHT22;3413;47.680;9.166;2023-06-22T10:31:41;31.90;87.90
6752;DHT22;3413;47.680;9.166;2023-06-22T10:36:43;32.00;88.00
6752;DHT22;3413;47.680;9.166;2023-06-22T10:41:45;32.20;88.10
6752;DHT22;3413;47.680;9.166;2023-06-22T10:46:47;32.40;88.00
6752;DHT22;3413;47.680;9.166;2023-06-22T10:51:49;32.50;87.90
6752;DHT22;3413;47.680;9.166;2023-06-22T10:56:51;32.80;88.00
6752;DHT22;3413;47.680;9.166;2023-06-22T11:01:53;32.90;87.80
6752;DHT22;3413;47.680;9.166;2023-06-22T11:06:55;33.00;87.80
6752;DHT22;3413;47.680;9.166;2023-06-22T11:11:58;33.20;87.40
6752;DHT22;3413;47.680;9.166;2023-06-22T11:17:01;33.20;87.20
6752;DHT22;3413;47.680;9.166;2023-06-22T11:22:03;33.20;87.30
6752;DHT22;3413;47.680;9.166;2023-06-22T11:27:05;33.10;87.30
6752;DHT22;3413;47.680;9.166;2023-06-22T11:32:08;33.10;87.30
6752;DHT22;3413;47.680;9.166;2023-06-22T11:37:13;33.20;87.20
6752;DHT22;3413;47.680;9.166;2023-06-22T11:42:15;33.20;87.10
6752;DHT22;3413;47.680;9.166;2023-06-22T11:47:17;33.20;87.10
6752;DHT22;3413;47.680;9.166;2023-06-22T11:52:19;33.10;87.00
6752;DHT22;3413;47.680;9.166;2023-06-22T11:57:21;33.20;87.00
6752;DHT22;3413;47.680;9.166;2023-06-22T12:02:23;33.10;86.90
6752;DHT22;3413;47.680;9.166;2023-06-22T12:07:25;33.20;87.00
6752;DHT22;3413;47.680;9.166;2023-06-22T12:12:27;33.40;87.10
6752;DHT22;3413;47.680;9.166;2023-06-22T12:17:29;33.40;86.90
6752;DHT22;3413;47.680;9.166;2023-06-22T12:22:32;33.60;86.90
6752;DHT22;3413;47.680;9.166;2023-06-22T12:27:38;33.60;86.70
6752;DHT22;3413;47.680;9.166;2023-06-22T12:32:40;33.60;86.40
6752;DHT22;3413;47.680;9.166;2023-06-22T12:37:42;33.50;86.40
6752;DHT22;3413;47.680;9.166;2023-06-22T12:42:45;33.40;86.30
6752;DHT22;3413;47.680;9.166;2023-06-22T12:47:47;33.40;86.50
6752;DHT22;3413;47.680;9.166;2023-06-22T12:52:51;33.30;86.40
6752;DHT22;3413;47.680;9.166;2023-06-22T12:57:54;33.30;86.30
6752;DHT22;3413;47.680;9.166;2023-06-22T13:02:56;33.40;86.40
6752;DHT22;3413;47.680;9.166;2023-06-22T13:07:58;33.50;86.40
6752;DHT22;3413;47.680;9.166;2023-06-22T13:13:00;33.60;86.30
6752;DHT22;3413;47.680;9.166;2023-06-22T13:18:03;33.70;86.30
6752;DHT22;3413;47.680;9.166;2023-06-22T13:23:05;33.70;86.20
6752;DHT22;3413;47.680;9.166;2023-06-22T13:28:07;33.80;86.20
6752;DHT22;3413;47.680;9.166;2023-06-22T13:33:24;33.90;86.20
6752;DHT22;3413;47.680;9.166;2023-06-22T13:38:26;34.10;86.00
6752;DHT22;3413;47.680;9.166;2023-06-22T13:43:28;34.20;85.90
6752;DHT22;3413;47.680;9.166;2023-06-22T13:48:30;34.20;86.00
6752;DHT22;3413;47.680;9.166;2023-06-22T13:53:32;34.30;85.90
6752;DHT22;3413;47.680;9.166;2023-06-22T13:58:35;34.20;85.70
6752;DHT22;3413;47.680;9.166;2023-06-22T14:03:37;34.20;85.50
6752;DHT22;3413;47.680;9.166;2023-06-22T14:08:38;34.20;85.40
6752;DHT22;3413;47.680;9.166;2023-06-22T14:14:00;34.20;85.30
6752;DHT22;3413;47.680;9.166;2023-06-22T14:19:02;34.30;85.20
6752;DHT22;3413;47.680;9.166;2023-06-22T14:24:04;34.40;85.00
6752;DHT22;3413;47.680;9.166;2023-06-22T14:29:06;34.30;84.20
6752;DHT22;3413;47.680;9.166;2023-06-22T14:34:08;34.10;83.80
6752;DHT22;3413;47.680;9.166;2023-06-22T14:39:10;34.00;83.40
6752;DHT22;3413;47.680;9.166;2023-06-22T14:44:12;33.90;82.90
6752;DHT22;3413;47.680;9.166;2023-06-22T14:49:14;33.70;82.60
6752;DHT22;3413;47.680;9.166;2023-06-22T14:54:15;33.60;82.20
6752;DHT22;3413;47.680;9.166;2023-06-22T14:59:17;33.40;81.70
6752;DHT22;3413;47.680;9.166;2023-06-22T15:04:19;33.40;81.50
6752;DHT22;3413;47.680;9.166;2023-06-22T15:09:21;33.40;81.30
6752;DHT22;3413;47.680;9.166;2023-06-22T15:14:23;33.50;81.00
6752;DHT22;3413;47.680;9.166;2023-06-22T15:19:26;33.30;80.70
6752;DHT22;3413;47.680;9.166;2023-06-22T15:24:28;33.30;80.70
6752;DHT22;3413;47.680;9.166;2023-06-22T15:29:30;33.40;80.50
6752;DHT22;3413;47.680;9.166;2023-06-22T15:34:35;33.40;80.30
6752;DHT22;3413;47.680;9.166;2023-06-22T15:39:37;33.40;80.10
6752;DHT22;3413;47.680;9.166;2023-06-22T15:44:39;33.40;79.90
6752;DHT22;3413;47.680;9.166;2023-06-22T15:49:41;33.30;79.70
6752;DHT22;3413;47.680;9.166;2023-06-22T15:54:43;33.10;79.50
6752;DHT22;3413;47.680;9.166;2023-06-22T15:59:45;33.00;79.30
6752;DHT22;3413;47.680;9.166;2023-06-22T16:04:47;33.00;79.10
6752;DHT22;3413;47.680;9.166;2023-06-22T16:09:49;33.00;78.90
6752;DHT22;3413;47.680;9.166;2023-06-22T16:14:51;33.00;78.90
6752;DHT22;3413;47.680;9.166;2023-06-22T16:19:54;33.00;78.70
6752;DHT22;3413;47.680;9.166;2023-06-22T16:24:56;33.00;78.70
6752;DHT22;3413;47.680;9.166;2023-06-22T16:29:59;32.80;78.60
6752;DHT22;3413;47.680;9.166;2023-06-22T16:35:02;32.60;78.70
6752;DHT22;3413;47.680;9.166;2023-06-22T16:40:04;32.50;78.70
6752;DHT22;3413;47.680;9.166;2023-06-22T16:45:06;32.30;78.60
6752;DHT22;3413;47.680;9.166;2023-06-22T16:50:09;32.20;78.50
6752;DHT22;3413;47.680;9.166;2023-06-22T16:55:11;32.20;78.50
6752;DHT22;3413;47.680;9.166;2023-06-22T17:00:14;32.10;78.30
6752;DHT22;3413;47.680;9.166;2023-06-22T17:05:16;31.70;78.20
6752;DHT22;3413;47.680;9.166;2023-06-22T17:10:21;31.60;78.20
6752;DHT22;3413;47.680;9.166;2023-06-22T17:15:24;31.30;78.30
6752;DHT22;3413;47.680;9.166;2023-06-22T17:20:28;30.80;78.50
6752;DHT22;3413;47.680;9.166;2023-06-22T17:25:33;30.20;78.60
6752;DHT22;3413;47.680;9.166;2023-06-22T17:30:35;29.50;79.00
6752;DHT22;3413;47.680;9.166;2023-06-22T17:35:49;29.20;78.90
6752;DHT22;3413;47.680;9.166;2023-06-22T17:41:00;29.00;78.90
6752;DHT22;3413;47.680;9.166;2023-06-22T17:46:02;28.70;79.20
6752;DHT22;3413;47.680;9.166;2023-06-22T17:51:04;28.50;79.10
6752;DHT22;3413;47.680;9.166;2023-06-22T17:56:08;28.30;79.20
6752;DHT22;3413;47.680;9.166;2023-06-22T18:01:10;28.00;79.20
6752;DHT22;3413;47.680;9.166;2023-06-22T18:06:12;28.00;79.20
6752;DHT22;3413;47.680;9.166;2023-06-22T18:11:14;28.10;79.20
6752;DHT22;3413;47.680;9.166;2023-06-22T18:16:17;27.90;79.00
6752;DHT22;3413;47.680;9.166;2023-06-22T18:21:20;27.70;79.00
6752;DHT22;3413;47.680;9.166;2023-06-22T18:26:26;27.40;79.30
6752;DHT22;3413;47.680;9.166;2023-06-22T18:31:28;27.30;79.60
6752;DHT22;3413;47.680;9.166;2023-06-22T18:36:43;27.20;79.80
6752;DHT22;3413;47.680;9.166;2023-06-22T18:41:53;26.90;80.10
6752;DHT22;3413;47.680;9.166;2023-06-22T18:47:01;26.80;80.30
6752;DHT22;3413;47.680;9.166;2023-06-22T18:52:16;26.80;80.60
6752;DHT22;3413;47.680;9.166;2023-06-22T18:57:23;26.70;80.60
6752;DHT22;3413;47.680;9.166;2023-06-22T19:13:44;26.10;80.30
6752;DHT22;3413;47.680;9.166;2023-06-22T19:18:25;25.80;80.10
6752;DHT22;3413;47.680;9.166;2023-06-22T19:23:33;25.80;80.10
6752;DHT22;3413;47.680;9.166;2023-06-22T19:28:50;25.80;79.80
6752;DHT22;3413;47.680;9.166;2023-06-22T19:39:04;25.80;80.10
6752;DHT22;3413;47.680;9.166;2023-06-22T19:44:06;25.60;80.10
6752;DHT22;3413;47.680;9.166;2023-06-22T19:49:08;25.40;80.20
6752;DHT22;3413;47.680;9.166;2023-06-22T19:54:10;25.40;80.90
6752;DHT22;3413;47.680;9.166;2023-06-22T19:59:14;25.30;80.30
6752;DHT22;3413;47.680;9.166;2023-06-22T20:04:23;25.30;80.20
6752;DHT22;3413;47.680;9.166;2023-06-22T20:09:25;25.20;80.20
6752;DHT22;3413;47.680;9.166;2023-06-22T20:14:33;25.20;80.10
6752;DHT22;3413;47.680;9.166;2023-06-22T20:19:39;25.00;79.90
6752;DHT22;3413;47.680;9.166;2023-06-22T20:24:43;24.80;79.80
6752;DHT22;3413;47.680;9.166;2023-06-22T20:29:48;24.50;79.70
6752;DHT22;3413;47.680;9.166;2023-06-22T20:34:49;24.20;79.70
6752;DHT22;3413;47.680;9.166;2023-06-22T20:39:51;24.10;79.70
6752;DHT22;3413;47.680;9.166;2023-06-22T20:44:54;23.90;79.70
6752;DHT22;3413;47.680;9.166;2023-06-22T20:49:56;23.80;79.70
6752;DHT22;3413;47.680;9.166;2023-06-22T20:55:00;23.70;79.80
6752;DHT22;3413;47.680;9.166;2023-06-22T21:00:03;23.80;79.70
6752;DHT22;3413;47.680;9.166;2023-06-22T21:05:09;23.80;79.70
6752;DHT22;3413;47.680;9.166;2023-06-22T21:10:11;23.70;79.80
6752;DHT22;3413;47.680;9.166;2023-06-22T21:15:13;23.80;79.80
6752;DHT22;3413;47.680;9.166;2023-06-22T21:20:17;23.80;79.80
6752;DHT22;3413;47.680;9.166;2023-06-22T21:25:19;23.80;79.80
6752;DHT22;3413;47.680;9.166;2023-06-22T21:30:21;23.80;79.90
6752;DHT22;3413;47.680;9.166;2023-06-22T21:35:23;23.80;79.90
6752;DHT22;3413;47.680;9.166;2023-06-22T21:40:25;23.80;79.80
6752;DHT22;3413;47.680;9.166;2023-06-22T21:45:27;23.80;79.90
6752;DHT22;3413;47.680;9.166;2023-06-22T21:50:29;23.80;79.90
6752;DHT22;3413;47.680;9.166;2023-06-22T21:55:31;23.70;79.90
6752;DHT22;3413;47.680;9.166;2023-06-22T22:00:33;23.60;79.80
6752;DHT22;3413;47.680;9.166;2023-06-22T22:05:35;23.60;79.90
6752;DHT22;3413;47.680;9.166;2023-06-22T22:10:37;23.50;79.90
6752;DHT22;3413;47.680;9.166;2023-06-22T22:15:39;23.40;80.00
6752;DHT22;3413;47.680;9.166;2023-06-22T22:20:41;23.30;80.10
6752;DHT22;3413;47.680;9.166;2023-06-22T22:25:43;23.20;80.00
6752;DHT22;3413;47.680;9.166;2023-06-22T22:30:45;23.20;80.10
6752;DHT22;3413;47.680;9.166;2023-06-22T22:35:48;23.20;80.10
6752;DHT22;3413;47.680;9.166;2023-06-22T22:40:49;23.10;80.90
6752;DHT22;3413;47.680;9.166;2023-06-22T22:45:51;23.00;80.20
6752;DHT22;3413;47.680;9.166;2023-06-22T22:50:53;23.00;80.20
6752;DHT22;3413;47.680;9.166;2023-06-22T22:55:55;22.90;80.20
6752;DHT22;3413;47.680;9.166;2023-06-22T23:00:57;23.00;80.10
6752;DHT22;3413;47.680;9.166;2023-06-22T23:06:00;23.00;80.00
6752;DHT22;3413;47.680;9.166;2023-06-22T23:11:02;23.00;80.10
6752;DHT22;3413;47.680;9.166;2023-06-22T23:16:04;22.90;80.20
6752;DHT22;3413;47.680;9.166;2023-06-22T23:21:06;22.80;80.20
6752;DHT22;3413;47.680;9.166;2023-06-22T23:26:09;22.60;80.20
6752;DHT22;3413;47.680;9.166;2023-06-22T23:31:11;22.50;80.20
6752;DHT22;3413;47.680;9.166;2023-06-22T23:36:14;22.50;80.40
6752;DHT22;3413;47.680;9.166;2023-06-22T23:41:16;22.50;80.40
6752;DHT22;3413;47.680;9.166;2023-06-22T23:46:19;22.60;80.50
6752;DHT22;3413;47.680;9.166;2023-06-22T23:51:21;22.70;80.50
6752;DHT22;3413;47.680;9.166;2023-06-22T23:56:24;22.70;80.40
